createdAt,value
2018-09-05T00:00:29.151Z,89.04
2018-09-05T00:02:57.852Z,88.59
2018-09-05T00:05:26.514Z,88.75
2018-09-05T00:07:55.188Z,89.63
2018-09-05T00:10:23.844Z,89.29
2018-09-05T00:12:52.502Z,88.58
2018-09-05T00:15:21.161Z,89.11
2018-09-05T00:17:49.844Z,88.72
2018-09-05T00:20:18.551Z,88.81
2018-09-05T00:22:47.235Z,89.39
2018-09-05T00:25:15.891Z,89.58
2018-09-05T00:27:44.599Z,89.01
2018-09-05T00:30:13.289Z,88.78
2018-09-05T00:32:42.029Z,88.24
2018-09-05T00:35:10.703Z,89.01
2018-09-05T00:37:39.419Z,88.83
2018-09-05T00:40:08.118Z,89.15
2018-09-05T00:42:36.807Z,88.74
2018-09-05T00:45:05.918Z,88.35
2018-09-05T00:47:34.575Z,88.60
2018-09-05T00:50:03.260Z,88.85
2018-09-05T00:52:31.941Z,88.97
2018-09-05T00:55:00.620Z,89.64
2018-09-05T00:57:29.302Z,89.62
2018-09-05T00:59:57.987Z,89.87
2018-09-05T01:02:26.651Z,89.91
2018-09-05T01:04:55.323Z,90.33
2018-09-05T01:07:26.607Z,90.16
2018-09-05T01:09:55.284Z,89.44
2018-09-05T01:12:24.796Z,89.95
2018-09-05T01:14:54.335Z,89.83
2018-09-05T01:17:23.055Z,90.08
2018-09-05T01:19:51.745Z,90.55
2018-09-05T01:22:20.382Z,90.25
2018-09-05T01:24:49.135Z,90.29
2018-09-05T01:27:17.973Z,90.04
2018-09-05T01:29:46.712Z,90.17
2018-09-05T01:32:15.386Z,90.07
2018-09-05T01:34:44.055Z,90.10
2018-09-05T01:37:12.716Z,90.29
2018-09-05T01:39:41.537Z,90.18
2018-09-05T01:42:10.936Z,90.10
2018-09-05T01:44:40.139Z,89.72
2018-09-05T01:47:08.868Z,89.50
2018-09-05T01:49:37.787Z,89.48
2018-09-05T01:52:06.437Z,89.56
2018-09-05T01:54:35.121Z,90.16
2018-09-05T01:57:04.076Z,89.58
2018-09-05T01:59:32.796Z,89.38
2018-09-05T02:02:01.543Z,89.35
2018-09-05T02:04:30.377Z,89.07
2018-09-05T02:06:59.054Z,89.55
2018-09-05T02:09:27.747Z,89.67
2018-09-05T02:11:56.460Z,89.93
2018-09-05T02:14:25.160Z,90.09
2018-09-05T02:16:54.446Z,89.55
2018-09-05T02:19:23.452Z,89.09
2018-09-05T02:21:52.142Z,88.60
2018-09-05T02:24:20.867Z,88.98
2018-09-05T02:26:49.514Z,89.70
2018-09-05T02:29:18.184Z,90.11
2018-09-05T02:31:46.839Z,90.13
2018-09-05T02:34:15.548Z,90.21
2018-09-05T02:36:44.222Z,90.42
2018-09-05T02:39:12.884Z,90.48
2018-09-05T02:41:41.558Z,89.91
2018-09-05T02:44:15.636Z,89.79
2018-09-05T02:46:44.383Z,89.41
2018-09-05T02:49:13.048Z,89.29
2018-09-05T02:51:42.454Z,89.42
2018-09-05T02:54:11.197Z,89.49
2018-09-05T02:56:39.890Z,89.33
2018-09-05T02:59:08.673Z,89.05
2018-09-05T03:01:37.325Z,89.58
2018-09-05T03:04:06.218Z,89.52
2018-09-05T03:06:34.899Z,90.07
2018-09-05T03:09:04.636Z,90.03
2018-09-05T03:11:33.286Z,90.60
2018-09-05T03:14:02.199Z,90.63
2018-09-05T03:16:30.892Z,90.23
2018-09-05T03:18:59.540Z,89.81
2018-09-05T03:21:28.211Z,89.14
2018-09-05T03:23:56.916Z,88.04
2018-09-05T03:26:25.584Z,86.78
2018-09-05T03:28:54.269Z,86.50
2018-09-05T03:31:23.066Z,85.85
2018-09-05T03:33:51.721Z,86.15
2018-09-05T03:36:20.440Z,85.13
2018-09-05T03:38:49.132Z,85.67
2018-09-05T03:41:17.819Z,85.92
2018-09-05T03:43:46.495Z,86.19
2018-09-05T03:46:15.144Z,85.46
2018-09-05T03:48:43.787Z,87.86
2018-09-05T03:51:12.485Z,88.39
2018-09-05T03:53:42.335Z,88.25
2018-09-05T03:56:10.995Z,88.39
2018-09-05T03:58:39.673Z,89.33
2018-09-05T04:01:08.348Z,89.12
2018-09-05T04:03:37.000Z,89.32
2018-09-05T04:06:05.714Z,89.42
2018-09-05T04:08:34.405Z,89.39
2018-09-05T04:11:03.108Z,89.23
2018-09-05T04:13:31.778Z,88.49
2018-09-05T04:16:00.478Z,89.19
2018-09-05T04:18:29.146Z,89.38
2018-09-05T04:20:57.832Z,89.94
2018-09-05T04:23:30.268Z,89.13
2018-09-05T04:25:58.940Z,89.25
2018-09-05T04:28:28.136Z,89.52
2018-09-05T04:30:56.872Z,89.71
2018-09-05T04:33:25.577Z,89.91
2018-09-05T04:35:54.274Z,89.88
2018-09-05T04:38:23.001Z,89.94
2018-09-05T04:40:51.692Z,89.89
2018-09-05T04:43:21.024Z,89.35
2018-09-05T04:45:49.737Z,89.52
2018-09-05T04:48:18.424Z,89.37
2018-09-05T04:50:47.124Z,89.69
2018-09-05T04:53:15.917Z,89.31
2018-09-05T04:55:44.672Z,89.48
2018-09-05T04:58:13.469Z,89.00
2018-09-05T05:00:42.247Z,89.06
2018-09-05T05:03:12.612Z,88.65
2018-09-05T05:05:41.317Z,88.63
2018-09-05T05:08:09.977Z,89.21
2018-09-05T05:10:38.939Z,88.48
2018-09-05T05:13:07.651Z,89.94
2018-09-05T05:15:36.341Z,89.26
2018-09-05T05:18:05.594Z,88.72
2018-09-05T05:20:34.412Z,88.48
2018-09-05T05:23:03.103Z,88.48
2018-09-05T05:25:31.873Z,88.57
2018-09-05T05:28:00.575Z,88.30
2018-09-05T05:30:29.269Z,88.09
2018-09-05T05:32:58.008Z,88.12
2018-09-05T05:35:26.703Z,87.98
2018-09-05T05:37:55.433Z,87.43
2018-09-05T05:40:24.160Z,87.61
2018-09-05T05:42:52.865Z,87.32
2018-09-05T05:45:21.613Z,87.54
2018-09-05T05:47:50.296Z,86.72
2018-09-05T05:50:19.449Z,86.95
2018-09-05T05:52:48.129Z,87.43
2018-09-05T05:55:16.844Z,87.27
2018-09-05T05:57:45.516Z,87.46
2018-09-05T06:00:14.186Z,85.88
2018-09-05T06:02:42.877Z,85.34
2018-09-05T06:05:11.592Z,84.97
2018-09-05T06:07:40.302Z,84.52
2018-09-05T06:10:09.064Z,83.82
2018-09-05T06:12:37.752Z,83.00
2018-09-05T06:15:06.498Z,83.24
2018-09-05T06:17:35.211Z,82.25
2018-09-05T06:20:03.905Z,81.90
2018-09-05T06:22:32.666Z,80.96
2018-09-05T06:25:01.411Z,81.13
2018-09-05T06:27:30.116Z,80.61
2018-09-05T06:29:58.800Z,80.30
2018-09-05T06:32:27.517Z,80.02
2018-09-05T06:34:56.248Z,79.24
2018-09-05T06:37:24.923Z,79.07
2018-09-05T06:39:53.605Z,78.94
2018-09-05T06:42:23.989Z,78.48
2018-09-05T06:44:52.758Z,78.77
2018-09-05T06:47:21.359Z,78.56
2018-09-05T06:49:50.705Z,78.46
2018-09-05T06:52:19.442Z,78.19
2018-09-05T06:54:48.153Z,78.23
2018-09-05T06:57:16.817Z,77.91
2018-09-05T06:59:45.988Z,77.29
2018-09-05T07:02:14.714Z,77.76
2018-09-05T07:04:43.416Z,77.65
2018-09-05T07:07:12.656Z,78.65
2018-09-05T07:09:41.365Z,79.69
2018-09-05T07:12:10.109Z,79.99
2018-09-05T07:14:38.825Z,79.42
2018-09-05T07:17:07.504Z,80.25
2018-09-05T07:19:36.169Z,80.06
2018-09-05T07:22:05.202Z,80.05
2018-09-05T07:24:33.878Z,80.86
2018-09-05T07:27:02.587Z,80.83
2018-09-05T07:29:31.325Z,79.95
2018-09-05T07:32:00.156Z,80.43
2018-09-05T07:34:28.852Z,80.68
2018-09-05T07:36:58.427Z,80.67
2018-09-05T07:39:27.288Z,79.80
2018-09-05T07:41:56.113Z,79.30
2018-09-05T07:44:25.764Z,78.92
2018-09-05T07:46:54.424Z,76.07
2018-09-05T07:49:23.073Z,73.04
2018-09-05T07:51:51.735Z,69.47
2018-09-05T07:54:20.420Z,71.34
2018-09-05T07:56:49.072Z,71.93
2018-09-05T07:59:17.749Z,70.75
2018-09-05T08:01:46.416Z,69.12
2018-09-05T08:04:15.077Z,67.75
2018-09-05T08:06:43.759Z,67.77
2018-09-05T08:09:12.966Z,68.63
2018-09-05T08:11:41.694Z,69.84
2018-09-05T08:14:10.364Z,69.73
2018-09-05T08:16:39.098Z,69.54
2018-09-05T08:19:07.735Z,71.64
2018-09-05T08:21:36.384Z,72.13
2018-09-05T08:24:05.134Z,71.40
2018-09-05T08:26:33.731Z,72.03
2018-09-05T08:29:02.454Z,70.98
2018-09-05T08:31:31.265Z,69.18
2018-09-05T08:33:59.989Z,67.12
2018-09-05T08:36:28.984Z,65.22
2018-09-05T08:38:58.452Z,63.03
2018-09-05T08:41:27.139Z,60.14
2018-09-05T08:43:56.218Z,60.21
2018-09-05T08:46:24.878Z,61.11
2018-09-05T08:48:53.536Z,61.81
2018-09-05T08:51:22.255Z,64.26
2018-09-05T08:53:51.104Z,64.32
2018-09-05T08:56:19.901Z,63.92
2018-09-05T08:58:48.515Z,62.78
2018-09-05T09:01:17.174Z,61.20
2018-09-05T09:03:45.940Z,61.29
2018-09-05T09:06:14.622Z,60.97
2018-09-05T09:08:43.341Z,61.14
2018-09-05T09:11:12.044Z,62.19
2018-09-05T09:13:40.706Z,61.15
2018-09-05T09:16:09.360Z,60.37
2018-09-05T09:18:38.056Z,61.41
2018-09-05T09:21:06.751Z,61.11
2018-09-05T09:23:35.408Z,60.02
2018-09-05T09:26:04.108Z,59.55
2018-09-05T09:28:32.804Z,57.54
2018-09-05T09:31:01.499Z,56.10
2018-09-05T09:33:30.168Z,56.05
2018-09-05T09:35:58.907Z,53.73
2018-09-05T09:38:27.633Z,51.71
2018-09-05T09:40:56.388Z,47.49
2018-09-05T09:43:25.077Z,49.61
2018-09-05T09:45:53.825Z,51.24
2018-09-05T09:48:22.473Z,49.00
2018-09-05T09:50:51.174Z,48.10
2018-09-05T09:53:19.858Z,47.26
2018-09-05T09:55:48.524Z,43.69
2018-09-05T09:58:17.211Z,44.75
2018-09-05T10:00:51.405Z,43.76
2018-09-05T10:03:34.365Z,44.16
2018-09-05T10:06:08.255Z,46.84
2018-09-05T10:08:42.201Z,48.71
2018-09-05T10:11:16.229Z,52.48
2018-09-05T10:13:50.160Z,52.41
2018-09-05T10:16:24.143Z,50.91
2018-09-05T10:18:53.838Z,50.02
2018-09-05T10:21:22.649Z,50.45
2018-09-05T10:23:51.375Z,49.60
2018-09-05T10:26:20.097Z,48.84
2018-09-05T10:28:48.764Z,47.03
2018-09-05T10:31:17.413Z,47.30
2018-09-05T10:33:46.085Z,48.94
2018-09-05T10:36:14.734Z,51.08
2018-09-05T10:38:43.394Z,53.19
2018-09-05T10:41:12.088Z,53.63
2018-09-05T10:43:40.964Z,52.34
2018-09-05T10:46:09.662Z,50.48
2018-09-05T10:48:38.297Z,49.42
2018-09-05T10:51:06.985Z,47.78
2018-09-05T10:53:35.655Z,49.19
2018-09-05T10:56:04.341Z,49.78
2018-09-05T10:58:32.980Z,49.27
2018-09-05T11:01:01.647Z,52.28
2018-09-05T11:03:30.332Z,55.63
2018-09-05T11:05:59.086Z,56.35
2018-09-05T11:08:27.771Z,53.43
2018-09-05T11:10:56.528Z,54.18
2018-09-05T11:13:25.140Z,54.98
2018-09-05T11:15:53.821Z,55.47
2018-09-05T11:18:22.535Z,56.52
2018-09-05T11:20:51.221Z,56.87
2018-09-05T11:23:19.858Z,56.29
2018-09-05T11:25:48.475Z,54.32
2018-09-05T11:28:17.118Z,52.70
2018-09-05T11:30:45.779Z,53.44
2018-09-05T11:33:14.412Z,50.30
2018-09-05T11:35:43.076Z,49.11
2018-09-05T11:38:11.744Z,47.78
2018-09-05T11:40:40.437Z,47.04
2018-09-05T11:43:09.172Z,47.31
2018-09-05T11:45:37.803Z,45.68
2018-09-05T11:48:06.478Z,44.84
2018-09-05T11:50:35.120Z,44.58
2018-09-05T11:53:03.804Z,43.37
2018-09-05T11:55:32.450Z,44.22
2018-09-05T11:58:01.115Z,46.02
2018-09-05T12:00:29.862Z,48.15
2018-09-05T12:02:58.548Z,49.26
2018-09-05T12:05:27.275Z,50.51
2018-09-05T12:07:55.965Z,49.95
2018-09-05T12:10:24.592Z,51.87
2018-09-05T12:12:53.316Z,52.17
2018-09-05T12:15:22.037Z,50.50
2018-09-05T12:17:50.699Z,48.89
2018-09-05T12:20:19.398Z,48.65
2018-09-05T12:22:48.060Z,49.39
2018-09-05T12:25:16.912Z,47.97
2018-09-05T12:27:45.551Z,46.06
2018-09-05T12:30:14.240Z,43.88
2018-09-05T12:32:42.946Z,45.11
2018-09-05T12:35:12.352Z,45.93
2018-09-05T12:37:40.997Z,47.12
2018-09-05T12:40:10.431Z,48.14
2018-09-05T12:42:39.099Z,48.74
2018-09-05T12:45:07.830Z,50.19
2018-09-05T12:47:36.497Z,51.28
2018-09-05T12:50:05.418Z,50.13
2018-09-05T12:52:34.047Z,50.25
2018-09-05T12:55:02.778Z,51.15
2018-09-05T12:57:31.423Z,52.65
2018-09-05T13:00:00.108Z,54.11
2018-09-05T13:02:28.780Z,51.58
2018-09-05T13:04:57.469Z,50.29
2018-09-05T13:07:26.104Z,49.17
2018-09-05T13:09:54.771Z,47.77
2018-09-05T13:12:23.440Z,47.52
2018-09-05T13:14:52.122Z,49.23
2018-09-05T13:17:20.865Z,50.19
2018-09-05T13:19:49.512Z,49.20
2018-09-05T13:22:18.165Z,48.66
2018-09-05T13:24:46.861Z,47.07
2018-09-05T13:27:15.529Z,47.02
2018-09-05T13:29:44.196Z,47.76
2018-09-05T13:32:12.850Z,46.36
2018-09-05T13:34:41.520Z,45.18
2018-09-05T13:37:10.259Z,44.22
2018-09-05T13:39:38.945Z,43.39
2018-09-05T13:42:07.615Z,43.42
2018-09-05T13:44:36.288Z,43.79
2018-09-05T13:47:04.981Z,43.63
2018-09-05T13:49:33.647Z,43.11
2018-09-05T13:52:03.896Z,43.19
2018-09-05T13:54:33.804Z,45.33
2018-09-05T13:57:02.647Z,45.53
2018-09-05T13:59:31.948Z,44.30
2018-09-05T14:02:01.408Z,43.26
2018-09-05T14:04:30.650Z,42.18
2018-09-05T14:07:01.454Z,42.77
2018-09-05T14:09:30.236Z,44.74
2018-09-05T14:11:58.937Z,44.90
2018-09-05T14:14:27.832Z,45.72
2018-09-05T14:16:56.507Z,44.16
2018-09-05T14:19:25.183Z,45.11
2018-09-05T14:21:53.872Z,46.09
2018-09-05T14:24:22.513Z,47.08
2018-09-05T14:26:51.988Z,46.34
2018-09-05T14:29:21.622Z,46.58
2018-09-05T14:31:50.308Z,47.09
2018-09-05T14:34:18.920Z,45.59
2018-09-05T14:36:47.600Z,45.98
2018-09-05T14:39:16.274Z,45.97
2018-09-05T14:41:44.954Z,46.80
2018-09-05T14:44:13.656Z,46.91
2018-09-05T14:46:42.603Z,47.27
2018-09-05T14:49:12.160Z,46.99
2018-09-05T14:51:41.790Z,45.75
2018-09-05T14:54:11.287Z,47.10
2018-09-05T14:56:41.403Z,49.04
2018-09-05T14:59:10.709Z,49.33
2018-09-05T15:01:40.785Z,49.65
2018-09-05T15:04:10.913Z,50.36
2018-09-05T15:06:40.130Z,50.42
2018-09-05T15:09:11.699Z,49.98
2018-09-05T15:11:41.966Z,50.83
2018-09-05T15:14:11.998Z,50.52
2018-09-05T15:16:44.145Z,51.12
2018-09-05T15:19:12.922Z,49.57
2018-09-05T15:21:41.608Z,49.53
2018-09-05T15:24:11.401Z,50.34
2018-09-05T15:26:40.140Z,49.88
2018-09-05T15:29:09.295Z,50.58
2018-09-05T15:31:38.197Z,52.59
2018-09-05T15:34:06.864Z,52.22
2018-09-05T15:36:35.897Z,53.54
2018-09-05T15:39:06.466Z,53.77
2018-09-05T15:41:35.333Z,53.71
2018-09-05T15:44:07.428Z,53.27
2018-09-05T15:46:37.099Z,52.42
2018-09-05T15:49:06.083Z,52.57
2018-09-05T15:51:34.786Z,52.72
2018-09-05T15:54:03.690Z,52.90
2018-09-05T15:56:32.868Z,53.09
2018-09-05T15:59:02.182Z,52.83
2018-09-05T16:01:31.370Z,53.17
2018-09-05T16:04:00.089Z,53.24
2018-09-05T16:06:30.267Z,53.84
2018-09-05T16:08:59.480Z,53.44
2018-09-05T16:11:33.485Z,54.09
2018-09-05T16:14:02.997Z,53.31
2018-09-05T16:16:31.694Z,53.25
2018-09-05T16:19:00.491Z,53.27
2018-09-05T16:21:31.292Z,53.12
2018-09-05T16:24:00.129Z,53.83
2018-09-05T16:26:28.779Z,54.34
2018-09-05T16:28:59.231Z,54.75
2018-09-05T16:31:28.510Z,54.68
2018-09-05T16:33:57.699Z,54.57
2018-09-05T16:36:27.791Z,55.73
2018-09-05T16:38:56.546Z,55.59
2018-09-05T16:41:26.035Z,56.39
2018-09-05T16:43:56.633Z,56.74
2018-09-05T16:46:25.352Z,57.51
2018-09-05T16:48:54.044Z,57.85
2018-09-05T16:51:22.795Z,58.78
2018-09-05T16:53:51.689Z,59.48
2018-09-05T16:56:20.428Z,59.38
2018-09-05T16:58:49.128Z,59.73
2018-09-05T17:01:18.408Z,59.11
2018-09-05T17:03:47.119Z,58.63
2018-09-05T17:06:18.295Z,59.16
2018-09-05T17:08:47.004Z,59.01
2018-09-05T17:11:16.878Z,59.46
2018-09-05T17:13:45.488Z,59.60
2018-09-05T17:16:14.470Z,59.85
2018-09-05T17:18:43.161Z,60.06
2018-09-05T17:21:11.836Z,60.35
2018-09-05T17:23:40.534Z,60.85
2018-09-05T17:26:09.276Z,61.23
2018-09-05T17:28:38.376Z,61.23
2018-09-05T17:31:07.217Z,60.82
2018-09-05T17:33:36.428Z,60.99
2018-09-05T17:36:05.138Z,61.22
2018-09-05T17:38:33.902Z,61.39
2018-09-05T17:41:03.520Z,61.68
2018-09-05T17:43:32.195Z,61.62
2018-09-05T17:46:02.082Z,61.36
2018-09-05T17:48:30.848Z,62.27
2018-09-05T17:50:59.580Z,61.17
2018-09-05T17:53:28.350Z,62.37
2018-09-05T17:55:57.034Z,62.06
2018-09-05T17:58:25.718Z,62.10
2018-09-05T18:00:54.560Z,62.77
2018-09-05T18:03:23.353Z,63.03
2018-09-05T18:05:52.483Z,63.09
2018-09-05T18:08:21.404Z,62.88
2018-09-05T18:10:50.159Z,63.32
2018-09-05T18:13:18.978Z,63.58
2018-09-05T18:15:47.774Z,63.96
2018-09-05T18:18:16.432Z,63.84
2018-09-05T18:20:45.115Z,64.95
2018-09-05T18:23:13.857Z,64.93
2018-09-05T18:25:42.579Z,65.09
2018-09-05T18:28:11.228Z,64.77
2018-09-05T18:30:39.941Z,65.51
2018-09-05T18:33:08.694Z,66.13
2018-09-05T18:35:37.419Z,67.16
2018-09-05T18:38:06.130Z,66.95
2018-09-05T18:40:34.817Z,66.89
2018-09-05T18:43:03.516Z,66.35
2018-09-05T18:45:32.270Z,66.07
2018-09-05T18:48:01.731Z,66.59
2018-09-05T18:50:30.415Z,66.93
2018-09-05T18:53:04.440Z,67.04
2018-09-05T18:55:33.164Z,67.31
2018-09-05T18:58:01.896Z,68.29
2018-09-05T19:00:30.593Z,67.73
2018-09-05T19:02:59.293Z,68.14
2018-09-05T19:05:28.013Z,68.84
2018-09-05T19:07:56.707Z,69.06
2018-09-05T19:10:25.987Z,68.85
2018-09-05T19:12:55.308Z,69.88
2018-09-05T19:15:24.455Z,70.37
2018-09-05T19:17:53.204Z,70.40
2018-09-05T19:20:21.885Z,69.71
2018-09-05T19:22:50.613Z,70.08
2018-09-05T19:25:20.414Z,70.29
2018-09-05T19:27:49.434Z,70.09
2018-09-05T19:30:18.139Z,70.75
2018-09-05T19:32:46.831Z,71.08
2018-09-05T19:35:15.536Z,70.95
2018-09-05T19:37:44.217Z,71.71
2018-09-05T19:40:12.941Z,71.50
2018-09-05T19:42:41.638Z,72.25
2018-09-05T19:45:10.327Z,72.66
2018-09-05T19:47:39.005Z,72.71
2018-09-05T19:50:07.761Z,71.87
2018-09-05T19:52:36.603Z,71.97
2018-09-05T19:55:05.298Z,71.69
2018-09-05T19:57:33.953Z,72.41
2018-09-05T20:00:02.651Z,73.24
2018-09-05T20:02:31.331Z,74.33
2018-09-05T20:05:00.051Z,74.04
2018-09-05T20:07:28.781Z,73.52
2018-09-05T20:09:57.495Z,74.33
2018-09-05T20:12:26.131Z,74.97
2018-09-05T20:14:54.848Z,75.46
2018-09-05T20:17:23.543Z,75.99
2018-09-05T20:19:52.228Z,76.06
2018-09-05T20:22:21.312Z,75.90
2018-09-05T20:24:50.094Z,75.20
2018-09-05T20:27:18.830Z,75.46
2018-09-05T20:29:47.516Z,76.03
2018-09-05T20:32:16.168Z,76.32
2018-09-05T20:34:44.858Z,75.60
2018-09-05T20:37:13.626Z,76.20
2018-09-05T20:39:42.341Z,77.10
2018-09-05T20:42:11.103Z,77.81
2018-09-05T20:44:39.897Z,78.13
2018-09-05T20:47:08.614Z,77.67
2018-09-05T20:49:37.283Z,77.81
2018-09-05T20:52:06.012Z,78.30
2018-09-05T20:54:34.639Z,77.33
2018-09-05T20:57:03.280Z,76.60
2018-09-05T20:59:32.012Z,76.55
2018-09-05T21:02:00.837Z,76.51
2018-09-05T21:04:29.536Z,76.74
2018-09-05T21:06:58.702Z,77.52
2018-09-05T21:09:27.421Z,77.29
2018-09-05T21:11:56.212Z,77.05
2018-09-05T21:14:24.963Z,77.48
2018-09-05T21:16:53.674Z,76.93
2018-09-05T21:19:22.396Z,77.32
2018-09-05T21:21:51.092Z,77.67
2018-09-05T21:24:19.731Z,77.61
2018-09-05T21:26:48.445Z,79.21
2018-09-05T21:29:17.148Z,79.35
2018-09-05T21:31:45.864Z,79.12
2018-09-05T21:34:14.609Z,79.07
2018-09-05T21:36:43.255Z,79.41
2018-09-05T21:39:11.996Z,79.27
2018-09-05T21:41:40.745Z,79.55
2018-09-05T21:44:09.744Z,79.12
2018-09-05T21:46:38.502Z,79.22
2018-09-05T21:49:07.275Z,78.96
2018-09-05T21:51:35.941Z,78.71
2018-09-05T21:54:04.718Z,79.17
2018-09-05T21:56:33.434Z,79.01
2018-09-05T21:59:02.359Z,79.58
2018-09-05T22:01:31.128Z,78.51
2018-09-05T22:03:59.816Z,78.77
2018-09-05T22:06:29.535Z,77.39
2018-09-05T22:08:58.244Z,78.35
2018-09-05T22:11:27.770Z,78.42
2018-09-05T22:13:57.028Z,78.68
2018-09-05T22:16:25.942Z,78.40
2018-09-05T22:18:54.625Z,79.16
2018-09-05T22:21:23.324Z,80.00
2018-09-05T22:23:51.976Z,79.84
2018-09-05T22:26:20.744Z,80.28
2018-09-05T22:28:49.449Z,81.25
2018-09-05T22:31:18.202Z,81.86
2018-09-05T22:33:46.816Z,82.14
2018-09-05T22:36:15.568Z,80.99
2018-09-05T22:38:44.368Z,81.66
2018-09-05T22:41:13.093Z,81.03
2018-09-05T22:43:53.247Z,81.93
2018-09-05T22:46:33.313Z,81.67
2018-09-05T22:49:15.196Z,82.43
2018-09-05T22:52:00.805Z,83.79
2018-09-05T22:54:45.080Z,84.53
2018-09-05T22:57:29.668Z,84.98
2018-09-05T23:00:14.589Z,85.60
2018-09-05T23:05:03.252Z,85.53
2018-09-05T23:08:40.925Z,85.32
2018-09-05T23:11:21.328Z,85.29
2018-09-05T23:15:05.231Z,85.23
2018-09-05T23:17:45.437Z,85.04
2018-09-05T23:21:22.451Z,84.82
2018-09-05T23:24:03.121Z,84.68
2018-09-05T23:26:31.797Z,85.53
2018-09-05T23:29:00.462Z,85.93
2018-09-05T23:31:29.148Z,85.28
2018-09-05T23:33:57.803Z,84.63
2018-09-05T23:36:26.817Z,84.89
2018-09-05T23:38:55.475Z,84.82
2018-09-05T23:41:24.278Z,85.16
2018-09-05T23:43:52.950Z,85.38
2018-09-05T23:46:21.621Z,84.93
2018-09-05T23:48:50.351Z,84.04
2018-09-05T23:51:19.103Z,85.32
2018-09-05T23:53:47.804Z,85.94
2018-09-05T23:56:16.489Z,86.11
2018-09-05T23:58:45.149Z,86.81
